sensor_id;sensor_type;location;lat;lon;timestamp;pressure;altitude;pressure_sealevel;temperature;humidity
9893;BME280;4985;49.092;8.542;2023-03-25T00:01:38;98686.53;;;17.53;53.45
9893;BME280;4985;49.092;8.542;2023-03-25T00:04:05;98691.84;;;17.53;53.46
9893;BME280;4985;49.092;8.542;2023-03-25T00:06:32;98696.38;;;17.52;53.46
9893;BME280;4985;49.092;8.542;2023-03-25T00:09:00;98689.44;;;17.51;53.45
9893;BME280;4985;49.092;8.542;2023-03-25T00:11:28;98677.97;;;17.51;53.44
9893;BME280;4985;49.092;8.542;2023-03-25T00:13:55;98683.28;;;17.51;53.46
9893;BME280;4985;49.092;8.542;2023-03-25T00:16:22;98679.00;;;17.50;53.46
9893;BME280;4985;49.092;8.542;2023-03-25T00:18:49;98685.38;;;17.49;53.47
9893;BME280;4985;49.092;8.542;2023-03-25T00:21:15;98688.03;;;17.49;53.49
9893;BME280;4985;49.092;8.542;2023-03-25T00:23:43;98681.66;;;17.50;53.50
9893;BME280;4985;49.092;8.542;2023-03-25T00:26:11;98682.69;;;17.49;53.49
9893;BME280;4985;49.092;8.542;2023-03-25T00:28:38;98677.38;;;17.49;53.50
9893;BME280;4985;49.092;8.542;2023-03-25T00:31:07;98676.56;;;17.48;53.49
9893;BME280;4985;49.092;8.542;2023-03-25T00:33:34;98668.44;;;17.43;53.47
9893;BME280;4985;49.092;8.542;2023-03-25T00:36:01;98676.34;;;17.50;53.49
9893;BME280;4985;49.092;8.542;2023-03-25T00:38:30;98676.56;;;17.48;53.48
9893;BME280;4985;49.092;8.542;2023-03-25T00:41:08;98671.25;;;17.48;53.48
9893;BME280;4985;49.092;8.542;2023-03-25T00:43:36;98663.28;;;17.48;53.47
9893;BME280;4985;49.092;8.542;2023-03-25T00:46:03;98650.78;;;17.49;53.46
9893;BME280;4985;49.092;8.542;2023-03-25T00:48:30;98661.41;;;17.49;53.46
9893;BME280;4985;49.092;8.542;2023-03-25T00:50:57;98659.78;;;17.48;53.46
9893;BME280;4985;49.092;8.542;2023-03-25T00:53:24;98667.56;;;17.49;53.46
9893;BME280;4985;49.092;8.542;2023-03-25T00:55:52;98652.63;;;17.48;53.44
9893;BME280;4985;49.092;8.542;2023-03-25T00:58:22;98648.12;;;17.49;53.44
9893;BME280;4985;49.092;8.542;2023-03-25T01:00:50;98653.44;;;17.49;53.43
9893;BME280;4985;49.092;8.542;2023-03-25T01:03:16;98649.97;;;17.48;53.43
9893;BME280;4985;49.092;8.542;2023-03-25T01:05:43;98655.28;;;17.48;53.43
9893;BME280;4985;49.092;8.542;2023-03-25T01:08:10;98649.16;;;17.48;53.43
9893;BME280;4985;49.092;8.542;2023-03-25T01:10:39;98651.00;;;17.47;53.43
9893;BME280;4985;49.092;8.542;2023-03-25T01:13:05;98646.50;;;17.48;53.42
9893;BME280;4985;49.092;8.542;2023-03-25T01:15:32;98631.56;;;17.46;53.44
9893;BME280;4985;49.092;8.542;2023-03-25T01:18:00;98639.53;;;17.46;53.43
9893;BME280;4985;49.092;8.542;2023-03-25T01:20:26;98644.87;;;17.46;53.43
9893;BME280;4985;49.092;8.542;2023-03-25T01:22:53;98641.41;;;17.46;53.42
9893;BME280;4985;49.092;8.542;2023-03-25T01:25:20;98640.59;;;17.45;53.42
9893;BME280;4985;49.092;8.542;2023-03-25T01:27:46;98628.31;;;17.44;53.43
9893;BME280;4985;49.092;8.542;2023-03-25T01:30:14;98624.81;;;17.44;53.44
9893;BME280;4985;49.092;8.542;2023-03-25T01:32:40;98615.22;;;17.43;53.45
9893;BME280;4985;49.092;8.542;2023-03-25T01:35:09;98616.03;;;17.43;53.45
9893;BME280;4985;49.092;8.542;2023-03-25T01:37:36;98615.22;;;17.43;53.46
9893;BME280;4985;49.092;8.542;2023-03-25T01:40:04;98606.41;;;17.42;53.48
9893;BME280;4985;49.092;8.542;2023-03-25T01:42:34;98613.59;;;17.42;53.47
9893;BME280;4985;49.092;8.542;2023-03-25T01:45:15;98606.66;;;17.41;53.47
9893;BME280;4985;49.092;8.542;2023-03-25T01:47:42;98622.59;;;17.41;53.48
9893;BME280;4985;49.092;8.542;2023-03-25T01:50:11;98613.81;;;17.40;53.48
9893;BME280;4985;49.092;8.542;2023-03-25T01:52:41;98629.78;;;17.40;53.49
9893;BME280;4985;49.092;8.542;2023-03-25T01:55:09;98655.56;;;17.40;53.50
9893;BME280;4985;49.092;8.542;2023-03-25T01:57:40;98650.47;;;17.38;53.51
9893;BME280;4985;49.092;8.542;2023-03-25T02:00:11;98671.75;;;17.38;53.52
9893;BME280;4985;49.092;8.542;2023-03-25T02:02:38;98673.84;;;17.36;53.53
9893;BME280;4985;49.092;8.542;2023-03-25T02:05:07;98666.66;;;17.37;53.56
9893;BME280;4985;49.092;8.542;2023-03-25T02:07:41;98660.75;;;17.35;53.56
9893;BME280;4985;49.092;8.542;2023-03-25T02:10:12;98644.00;;;17.34;53.58
9893;BME280;4985;49.092;8.542;2023-03-25T02:12:40;98659.13;;;17.34;53.59
9893;BME280;4985;49.092;8.542;2023-03-25T02:15:11;98661.00;;;17.33;53.60
9893;BME280;4985;49.092;8.542;2023-03-25T02:17:47;98657.34;;;17.28;53.60
9893;BME280;4985;49.092;8.542;2023-03-25T02:20:36;98636.13;;;17.21;53.60
9893;BME280;4985;49.092;8.542;2023-03-25T02:23:29;98657.72;;;17.31;53.62
9893;BME280;4985;49.092;8.542;2023-03-25T02:26:19;98649.72;;;17.31;53.63
9893;BME280;4985;49.092;8.542;2023-03-25T02:28:54;98661.41;;;17.30;53.63
9893;BME280;4985;49.092;8.542;2023-03-25T02:31:44;98674.72;;;17.30;53.64
9893;BME280;4985;49.092;8.542;2023-03-25T02:34:39;98678.19;;;17.31;53.63
9893;BME280;4985;49.092;8.542;2023-03-25T02:37:25;98664.06;;;17.30;53.63
9893;BME280;4985;49.092;8.542;2023-03-25T02:40:02;98665.09;;;17.29;53.62
9893;BME280;4985;49.092;8.542;2023-03-25T02:42:36;98660.59;;;17.30;53.61
9893;BME280;4985;49.092;8.542;2023-03-25T02:45:06;98664.06;;;17.30;53.60
9893;BME280;4985;49.092;8.542;2023-03-25T02:47:37;98657.94;;;17.30;53.60
9893;BME280;4985;49.092;8.542;2023-03-25T02:50:10;98664.06;;;17.30;53.59
9893;BME280;4985;49.092;8.542;2023-03-25T02:52:42;98655.28;;;17.30;53.61
9893;BME280;4985;49.092;8.542;2023-03-25T02:55:14;98651.81;;;17.29;53.60
9893;BME280;4985;49.092;8.542;2023-03-25T02:57:44;98651.00;;;17.29;53.60
9893;BME280;4985;49.092;8.542;2023-03-25T03:00:14;98646.47;;;17.29;53.58
9893;BME280;4985;49.092;8.542;2023-03-25T03:02:44;98646.47;;;17.29;53.57
9893;BME280;4985;49.092;8.542;2023-03-25T03:05:23;98648.09;;;17.30;53.57
9893;BME280;4985;49.092;8.542;2023-03-25T03:07:55;98640.00;;;17.25;53.56
9893;BME280;4985;49.092;8.542;2023-03-25T03:10:35;98641.16;;;17.29;53.55
9893;BME280;4985;49.092;8.542;2023-03-25T03:13:15;98637.47;;;17.30;53.55
9893;BME280;4985;49.092;8.542;2023-03-25T03:15:52;98628.44;;;17.31;53.53
9893;BME280;4985;49.092;8.542;2023-03-25T03:18:30;98628.44;;;17.31;53.51
9893;BME280;4985;49.092;8.542;2023-03-25T03:21:08;98629.50;;;17.30;53.50
9893;BME280;4985;49.092;8.542;2023-03-25T03:23:45;98629.50;;;17.30;53.51
9893;BME280;4985;49.092;8.542;2023-03-25T03:26:21;98635.84;;;17.29;53.50
9893;BME280;4985;49.092;8.542;2023-03-25T03:28:56;98630.53;;;17.29;53.50
9893;BME280;4985;49.092;8.542;2023-03-25T03:31:29;98631.56;;;17.28;53.50
9893;BME280;4985;49.092;8.542;2023-03-25T03:34:03;98639.53;;;17.28;53.50
9893;BME280;4985;49.092;8.542;2023-03-25T03:36:38;98638.72;;;17.28;53.50
9893;BME280;4985;49.092;8.542;2023-03-25T03:39:11;98640.56;;;17.27;53.51
9893;BME280;4985;49.092;8.542;2023-03-25T03:41:43;98645.91;;;17.27;53.51
9893;BME280;4985;49.092;8.542;2023-03-25T03:44:14;98632.59;;;17.27;53.51
9893;BME280;4985;49.092;8.542;2023-03-25T03:46:48;98632.59;;;17.27;53.53
9893;BME280;4985;49.092;8.542;2023-03-25T03:49:20;98641.84;;;17.25;53.52
9893;BME280;4985;49.092;8.542;2023-03-25T03:51:51;98612.59;;;17.25;53.53
9893;BME280;4985;49.092;8.542;2023-03-25T03:54:23;98636.75;;;17.23;53.54
9893;BME280;4985;49.092;8.542;2023-03-25T03:56:54;98642.06;;;17.23;53.55
9893;BME280;4985;49.092;8.542;2023-03-25T03:59:26;98631.44;;;17.23;53.57
9893;BME280;4985;49.092;8.542;2023-03-25T04:01:59;98643.09;;;17.22;53.57
9893;BME280;4985;49.092;8.542;2023-03-25T04:04:27;98634.38;;;17.15;53.59
9893;BME280;4985;49.092;8.542;2023-03-25T04:06:56;98642.50;;;17.20;53.58
9893;BME280;4985;49.092;8.542;2023-03-25T04:09:29;98651.50;;;17.19;53.60
9893;BME280;4985;49.092;8.542;2023-03-25T04:12:07;98640.88;;;17.19;53.60
9893;BME280;4985;49.092;8.542;2023-03-25T04:14:36;98644.56;;;17.18;53.60
9893;BME280;4985;49.092;8.542;2023-03-25T04:17:04;98644.56;;;17.18;53.61
9893;BME280;4985;49.092;8.542;2023-03-25T04:19:30;98649.06;;;17.17;53.62
9893;BME280;4985;49.092;8.542;2023-03-25T04:21:58;98645.59;;;17.17;53.63
9893;BME280;4985;49.092;8.542;2023-03-25T04:24:26;98629.50;;;17.12;53.62
9893;BME280;4985;49.092;8.542;2023-03-25T04:26:55;98625.34;;;17.16;53.62
9893;BME280;4985;49.092;8.542;2023-03-25T04:29:25;98636.00;;;17.16;53.62
9893;BME280;4985;49.092;8.542;2023-03-25T04:31:51;98633.56;;;17.14;53.60
9893;BME280;4985;49.092;8.542;2023-03-25T04:34:20;98651.13;;;17.15;53.62
9893;BME280;4985;49.092;8.542;2023-03-25T04:36:47;98646.69;;;17.09;53.62
9893;BME280;4985;49.092;8.542;2023-03-25T04:39:14;98663.84;;;17.13;53.62
9893;BME280;4985;49.092;8.542;2023-03-25T04:41:43;98642.81;;;17.12;53.64
9893;BME280;4985;49.092;8.542;2023-03-25T04:44:09;98660.37;;;17.13;53.64
9893;BME280;4985;49.092;8.542;2023-03-25T04:46:38;98664.06;;;17.12;53.63
9893;BME280;4985;49.092;8.542;2023-03-25T04:49:05;98669.41;;;17.12;53.63
9893;BME280;4985;49.092;8.542;2023-03-25T04:51:38;98671.25;;;17.11;53.64
9893;BME280;4985;49.092;8.542;2023-03-25T04:54:06;98663.47;;;17.10;53.65
9893;BME280;4985;49.092;8.542;2023-03-25T04:56:33;98669.63;;;17.10;53.66
9893;BME280;4985;49.092;8.542;2023-03-25T04:59:01;98660.81;;;17.10;53.65
9893;BME280;4985;49.092;8.542;2023-03-25T05:01:28;98674.09;;;17.10;53.66
9893;BME280;4985;49.092;8.542;2023-03-25T05:03:58;98674.09;;;17.10;53.66
9893;BME280;4985;49.092;8.542;2023-03-25T05:06:30;98675.94;;;17.09;53.65
9893;BME280;4985;49.092;8.542;2023-03-25T05:08:58;98671.44;;;17.10;53.65
9893;BME280;4985;49.092;8.542;2023-03-25T05:11:26;98673.28;;;17.09;53.63
9893;BME280;4985;49.092;8.542;2023-03-25T05:13:52;98677.78;;;17.09;53.65
9893;BME280;4985;49.092;8.542;2023-03-25T05:16:19;98681.25;;;17.09;53.64
9893;BME280;4985;49.092;8.542;2023-03-25T05:18:46;98678.59;;;17.09;53.62
9893;BME280;4985;49.092;8.542;2023-03-25T05:21:15;98685.78;;;17.09;53.62
9893;BME280;4985;49.092;8.542;2023-03-25T05:23:41;98683.09;;;17.09;53.62
9893;BME280;4985;49.092;8.542;2023-03-25T05:26:09;98693.75;;;17.09;53.62
9893;BME280;4985;49.092;8.542;2023-03-25T05:28:37;98683.91;;;17.09;53.61
9893;BME280;4985;49.092;8.542;2023-03-25T05:31:04;98678.59;;;17.09;53.59
9893;BME280;4985;49.092;8.542;2023-03-25T05:33:33;98679.62;;;17.08;53.59
9893;BME280;4985;49.092;8.542;2023-03-25T05:36:01;98675.13;;;17.09;53.59
9893;BME280;4985;49.092;8.542;2023-03-25T05:38:29;98673.50;;;17.08;53.58
9893;BME280;4985;49.092;8.542;2023-03-25T05:40:57;98678.00;;;17.07;53.58
9893;BME280;4985;49.092;8.542;2023-03-25T05:43:25;98668.41;;;17.06;53.60
9893;BME280;4985;49.092;8.542;2023-03-25T05:45:51;98685.41;;;17.05;53.59
9893;BME280;4985;49.092;8.542;2023-03-25T05:48:18;98681.72;;;17.06;53.60
9893;BME280;4985;49.092;8.542;2023-03-25T05:50:45;98674.53;;;17.07;53.59
9893;BME280;4985;49.092;8.542;2023-03-25T05:53:13;98686.22;;;17.06;53.57
9893;BME280;4985;49.092;8.542;2023-03-25T05:55:42;98676.38;;;17.06;53.59
9893;BME280;4985;49.092;8.542;2023-03-25T05:58:08;98682.75;;;17.05;53.58
9893;BME280;4985;49.092;8.542;2023-03-25T06:00:35;98674.75;;;17.05;53.58
9893;BME280;4985;49.092;8.542;2023-03-25T06:03:05;98687.25;;;17.05;53.59
9893;BME280;4985;49.092;8.542;2023-03-25T06:05:32;98689.91;;;17.05;53.59
9893;BME280;4985;49.092;8.542;2023-03-25T06:07:58;98677.88;;;17.02;53.60
9893;BME280;4985;49.092;8.542;2023-03-25T06:10:26;98694.62;;;17.03;53.62
9893;BME280;4985;49.092;8.542;2023-03-25T06:12:54;98693.81;;;17.02;53.62
9893;BME280;4985;49.092;8.542;2023-03-25T06:15:20;98704.47;;;17.02;53.63
9893;BME280;4985;49.092;8.542;2023-03-25T06:17:53;98707.94;;;17.03;53.63
9893;BME280;4985;49.092;8.542;2023-03-25T06:20:20;98713.25;;;17.03;53.64
9893;BME280;4985;49.092;8.542;2023-03-25T06:22:46;98722.03;;;17.03;53.62
9893;BME280;4985;49.092;8.542;2023-03-25T06:25:15;98730.25;;;17.02;53.61
9893;BME280;4985;49.092;8.542;2023-03-25T06:27:44;98726.53;;;17.03;53.62
9893;BME280;4985;49.092;8.542;2023-03-25T06:30:16;98719.59;;;17.02;53.63
9893;BME280;4985;49.092;8.542;2023-03-25T06:32:43;98720.63;;;17.01;53.62
9893;BME280;4985;49.092;8.542;2023-03-25T06:35:11;98728.41;;;17.02;53.62
9893;BME280;4985;49.092;8.542;2023-03-25T06:37:38;98728.16;;;17.04;53.62
9893;BME280;4985;49.092;8.542;2023-03-25T06:40:05;98735.34;;;17.03;53.60
9893;BME280;4985;49.092;8.542;2023-03-25T06:42:32;98732.69;;;17.03;53.58
9893;BME280;4985;49.092;8.542;2023-03-25T06:44:59;98736.16;;;17.04;53.56
9893;BME280;4985;49.092;8.542;2023-03-25T06:47:29;98751.06;;;17.05;53.56
9893;BME280;4985;49.092;8.542;2023-03-25T06:49:56;98747.38;;;17.06;53.52
9893;BME280;4985;49.092;8.542;2023-03-25T06:52:23;98747.38;;;17.06;53.49
9893;BME280;4985;49.092;8.542;2023-03-25T06:54:49;98747.16;;;17.07;53.48
9893;BME280;4985;49.092;8.542;2023-03-25T06:57:16;98741.03;;;17.07;53.45
9893;BME280;4985;49.092;8.542;2023-03-25T06:59:42;98745.53;;;17.06;53.45
9893;BME280;4985;49.092;8.542;2023-03-25T07:02:11;98743.91;;;17.05;53.47
9893;BME280;4985;49.092;8.542;2023-03-25T07:04:39;98735.13;;;17.05;53.49
9893;BME280;4985;49.092;8.542;2023-03-25T07:07:06;98733.50;;;17.04;53.48
9893;BME280;4985;49.092;8.542;2023-03-25T07:09:33;98735.94;;;17.05;53.48
9893;BME280;4985;49.092;8.542;2023-03-25T07:12:00;98745.75;;;17.05;53.48
9893;BME280;4985;49.092;8.542;2023-03-25T07:14:27;98734.31;;;17.04;53.50
9893;BME280;4985;49.092;8.542;2023-03-25T07:16:53;98728.97;;;17.04;53.50
9893;BME280;4985;49.092;8.542;2023-03-25T07:19:20;98734.31;;;17.04;53.50
9893;BME280;4985;49.092;8.542;2023-03-25T07:21:48;98727.34;;;17.03;53.49
9893;BME280;4985;49.092;8.542;2023-03-25T07:24:15;98731.88;;;17.03;53.50
9893;BME280;4985;49.092;8.542;2023-03-25T07:26:41;98721.22;;;17.03;53.52
9893;BME280;4985;49.092;8.542;2023-03-25T07:29:08;98718.56;;;17.03;53.52
9893;BME280;4985;49.092;8.542;2023-03-25T07:31:35;98715.91;;;17.03;53.52
9893;BME280;4985;49.092;8.542;2023-03-25T07:34:01;98721.22;;;17.03;53.51
9893;BME280;4985;49.092;8.542;2023-03-25T07:36:29;98714.28;;;17.02;53.52
9893;BME280;4985;49.092;8.542;2023-03-25T07:38:57;98718.78;;;17.01;53.53
9893;BME280;4985;49.092;8.542;2023-03-25T07:41:23;98724.91;;;17.02;53.54
9893;BME280;4985;49.092;8.542;2023-03-25T07:43:50;98718.78;;;17.01;53.53
9893;BME280;4985;49.092;8.542;2023-03-25T07:46:16;98720.63;;;17.01;53.53
9893;BME280;4985;49.092;8.542;2023-03-25T07:48:43;98720.63;;;17.01;53.54
9893;BME280;4985;49.092;8.542;2023-03-25T07:51:10;98714.69;;;16.99;53.56
9893;BME280;4985;49.092;8.542;2023-03-25T07:53:36;98720.84;;;16.99;53.58
9893;BME280;4985;49.092;8.542;2023-03-25T07:56:08;98722.69;;;16.99;53.59
9893;BME280;4985;49.092;8.542;2023-03-25T07:58:35;98719.22;;;16.98;53.61
9893;BME280;4985;49.092;8.542;2023-03-25T08:01:03;98721.06;;;16.98;53.61
9893;BME280;4985;49.092;8.542;2023-03-25T08:03:30;98722.69;;;16.99;53.62
9893;BME280;4985;49.092;8.542;2023-03-25T08:05:59;98714.69;;;16.99;53.62
9893;BME280;4985;49.092;8.542;2023-03-25T08:08:26;98713.87;;;16.98;53.63
9893;BME280;4985;49.092;8.542;2023-03-25T08:10:54;98707.75;;;16.98;53.64
9893;BME280;4985;49.092;8.542;2023-03-25T08:13:23;98703.25;;;16.98;53.64
9893;BME280;4985;49.092;8.542;2023-03-25T08:15:50;98686.50;;;16.98;53.62
9893;BME280;4985;49.092;8.542;2023-03-25T08:18:16;98698.75;;;16.99;53.62
9893;BME280;4985;49.092;8.542;2023-03-25T08:20:43;98709.38;;;16.99;53.63
9893;BME280;4985;49.092;8.542;2023-03-25T08:23:10;98712.25;;;16.97;53.64
9893;BME280;4985;49.092;8.542;2023-03-25T08:25:38;98695.50;;;16.97;53.66
9893;BME280;4985;49.092;8.542;2023-03-25T08:28:05;98712.25;;;16.97;53.66
9893;BME280;4985;49.092;8.542;2023-03-25T08:30:34;98713.06;;;16.98;53.67
9893;BME280;4985;49.092;8.542;2023-03-25T08:33:03;98713.87;;;16.98;53.68
9893;BME280;4985;49.092;8.542;2023-03-25T08:35:31;98703.31;;;16.92;53.70
9893;BME280;4985;49.092;8.542;2023-03-25T08:37:59;98718.38;;;16.98;53.69
9893;BME280;4985;49.092;8.542;2023-03-25T08:40:29;98740.47;;;16.98;53.70
9893;BME280;4985;49.092;8.542;2023-03-25T08:42:56;98737.81;;;16.98;53.68
9893;BME280;4985;49.092;8.542;2023-03-25T08:45:23;98752.97;;;16.98;53.69
9893;BME280;4985;49.092;8.542;2023-03-25T08:47:51;98756.44;;;16.98;53.71
9893;BME280;4985;49.092;8.542;2023-03-25T08:50:17;98755.62;;;16.98;53.73
9893;BME280;4985;49.092;8.542;2023-03-25T08:52:45;98758.28;;;16.98;53.73
9893;BME280;4985;49.092;8.542;2023-03-25T08:55:12;98734.34;;;16.98;53.75
9893;BME280;4985;49.092;8.542;2023-03-25T08:57:40;98748.66;;;16.97;53.77
9893;BME280;4985;49.092;8.542;2023-03-25T09:00:08;98748.44;;;16.98;53.76
9893;BME280;4985;49.092;8.542;2023-03-25T09:02:38;98729.03;;;16.98;53.74
9893;BME280;4985;49.092;8.542;2023-03-25T09:05:07;98733.31;;;16.99;53.71
9893;BME280;4985;49.092;8.542;2023-03-25T09:07:35;98732.72;;;16.97;53.72
9893;BME280;4985;49.092;8.542;2023-03-25T09:10:03;98725.56;;;16.97;53.72
9893;BME280;4985;49.092;8.542;2023-03-25T09:12:30;98737.00;;;16.98;53.72
9893;BME280;4985;49.092;8.542;2023-03-25T09:14:56;98741.28;;;16.99;53.71
9893;BME280;4985;49.092;8.542;2023-03-25T09:17:23;98744.16;;;16.97;53.72
9893;BME280;4985;49.092;8.542;2023-03-25T09:19:50;98738.84;;;16.97;53.73
9893;BME280;4985;49.092;8.542;2023-03-25T09:22:18;98735.97;;;16.99;53.73
9893;BME280;4985;49.092;8.542;2023-03-25T09:24:45;98726.38;;;16.98;53.72
9893;BME280;4985;49.092;8.542;2023-03-25T09:27:11;98717.34;;;16.99;53.69
9893;BME280;4985;49.092;8.542;2023-03-25T09:29:38;98735.97;;;16.99;53.68
9893;BME280;4985;49.092;8.542;2023-03-25T09:32:05;98725.34;;;16.99;53.68
9893;BME280;4985;49.092;8.542;2023-03-25T09:34:31;98723.56;;;16.93;53.68
9893;BME280;4985;49.092;8.542;2023-03-25T09:36:58;98742.13;;;16.99;53.67
9893;BME280;4985;49.092;8.542;2023-03-25T09:39:26;98743.94;;;16.99;53.68
9893;BME280;4985;49.092;8.542;2023-03-25T09:42:12;98766.06;;;16.99;53.69
9893;BME280;4985;49.092;8.542;2023-03-25T09:44:52;98759.91;;;16.99;53.69
9893;BME280;4985;49.092;8.542;2023-03-25T09:47:22;98765.22;;;16.99;53.71
9893;BME280;4985;49.092;8.542;2023-03-25T09:49:53;98757.25;;;16.99;53.73
9893;BME280;4985;49.092;8.542;2023-03-25T09:52:24;98757.25;;;16.99;53.74
9893;BME280;4985;49.092;8.542;2023-03-25T09:54:58;98758.09;;;16.99;53.76
9893;BME280;4985;49.092;8.542;2023-03-25T09:57:30;98754.59;;;16.99;53.74
9893;BME280;4985;49.092;8.542;2023-03-25T09:59:59;98755.19;;;17.01;53.74
9893;BME280;4985;49.092;8.542;2023-03-25T10:02:35;98761.56;;;17.00;53.75
9893;BME280;4985;49.092;8.542;2023-03-25T10:05:19;98765.84;;;17.01;53.78
9893;BME280;4985;49.092;8.542;2023-03-25T10:07:56;98776.47;;;17.01;53.78
9893;BME280;4985;49.092;8.542;2023-03-25T10:10:31;98777.50;;;17.00;53.79
9893;BME280;4985;49.092;8.542;2023-03-25T10:13:08;98772.19;;;17.00;53.78
9893;BME280;4985;49.092;8.542;2023-03-25T10:15:39;98775.66;;;17.00;53.80
9893;BME280;4985;49.092;8.542;2023-03-25T10:18:22;98770.34;;;17.00;53.79
9893;BME280;4985;49.092;8.542;2023-03-25T10:20:57;98772.19;;;17.00;53.78
9893;BME280;4985;49.092;8.542;2023-03-25T10:23:33;98765.03;;;17.00;53.78
9893;BME280;4985;49.092;8.542;2023-03-25T10:26:07;98755.19;;;17.01;53.76
9893;BME280;4985;49.092;8.542;2023-03-25T10:28:39;98741.91;;;17.01;53.75
9893;BME280;4985;49.092;8.542;2023-03-25T10:31:13;98749.06;;;17.00;53.75
9893;BME280;4985;49.092;8.542;2023-03-25T10:33:44;98749.88;;;17.01;53.74
9893;BME280;4985;49.092;8.542;2023-03-25T10:36:16;98752.31;;;17.02;53.76
9893;BME280;4985;49.092;8.542;2023-03-25T10:38:49;98749.44;;;17.04;53.73
9893;BME280;4985;49.092;8.542;2023-03-25T10:41:25;98738.81;;;17.04;53.73
9893;BME280;4985;49.092;8.542;2023-03-25T10:43:52;98737.19;;;17.03;53.73
9893;BME280;4985;49.092;8.542;2023-03-25T10:46:25;98731.88;;;17.03;53.75
9893;BME280;4985;49.092;8.542;2023-03-25T10:48:53;98721.22;;;17.03;53.76
9893;BME280;4985;49.092;8.542;2023-03-25T10:51:24;98738.00;;;17.03;53.75
9893;BME280;4985;49.092;8.542;2023-03-25T10:53:52;98731.66;;;17.04;53.74
9893;BME280;4985;49.092;8.542;2023-03-25T10:56:23;98727.34;;;17.03;53.78
9893;BME280;4985;49.092;8.542;2023-03-25T10:58:51;98718.34;;;17.04;53.79
9893;BME280;4985;49.092;8.542;2023-03-25T11:01:20;98717.53;;;17.04;53.79
9893;BME280;4985;49.092;8.542;2023-03-25T11:03:49;98716.50;;;17.05;53.78
9893;BME280;4985;49.092;8.542;2023-03-25T11:06:22;98720.19;;;17.04;53.79
9893;BME280;4985;49.092;8.542;2023-03-25T11:09:14;98721.00;;;17.04;53.82
9893;BME280;4985;49.092;8.542;2023-03-25T11:11:44;98723.66;;;17.04;53.83
9893;BME280;4985;49.092;8.542;2023-03-25T11:14:13;98723.66;;;17.04;53.86
9893;BME280;4985;49.092;8.542;2023-03-25T11:16:42;98721.00;;;17.04;53.87
9893;BME280;4985;49.092;8.542;2023-03-25T11:19:16;98727.34;;;17.03;53.85
9893;BME280;4985;49.092;8.542;2023-03-25T11:21:45;98735.13;;;17.05;53.86
9893;BME280;4985;49.092;8.542;2023-03-25T11:24:13;98727.13;;;17.05;53.84
9893;BME280;4985;49.092;8.542;2023-03-25T11:26:45;98724.25;;;17.06;53.83
9893;BME280;4985;49.092;8.542;2023-03-25T11:29:17;98725.28;;;17.05;53.82
9893;BME280;4985;49.092;8.542;2023-03-25T11:31:55;98721.22;;;17.03;53.83
9893;BME280;4985;49.092;8.542;2023-03-25T11:34:22;98724.47;;;17.05;53.84
9893;BME280;4985;49.092;8.542;2023-03-25T11:36:52;98733.28;;;17.05;53.85
9893;BME280;4985;49.092;8.542;2023-03-25T11:39:26;98722.63;;;17.05;53.85
9893;BME280;4985;49.092;8.542;2023-03-25T11:41:56;98697.87;;;17.05;53.85
9893;BME280;4985;49.092;8.542;2023-03-25T11:44:25;98713.84;;;17.05;53.83
9893;BME280;4985;49.092;8.542;2023-03-25T11:46:55;98707.47;;;17.06;53.81
9893;BME280;4985;49.092;8.542;2023-03-25T11:49:23;98713.03;;;17.04;53.83
9893;BME280;4985;49.092;8.542;2023-03-25T11:51:56;98707.72;;;17.04;53.86
9893;BME280;4985;49.092;8.542;2023-03-25T11:54:24;98708.75;;;17.03;53.86
9893;BME280;4985;49.092;8.542;2023-03-25T11:56:53;98714.88;;;17.04;53.86
9893;BME280;4985;49.092;8.542;2023-03-25T11:59:23;98705.87;;;17.05;53.86
9893;BME280;4985;49.092;8.542;2023-03-25T12:01:59;98717.53;;;17.04;53.87
9893;BME280;4985;49.092;8.542;2023-03-25T12:04:27;98707.72;;;17.04;53.89
9893;BME280;4985;49.092;8.542;2023-03-25T12:06:57;98703.19;;;17.05;53.89
9893;BME280;4985;49.092;8.542;2023-03-25T12:09:25;98704.06;;;16.99;53.86
9893;BME280;4985;49.092;8.542;2023-03-25T12:15:02;98713.03;;;17.04;53.91
9893;BME280;4985;49.092;8.542;2023-03-25T12:17:41;98730.59;;;17.05;53.92
9893;BME280;4985;49.092;8.542;2023-03-25T12:20:18;98735.13;;;17.05;53.94
9893;BME280;4985;49.092;8.542;2023-03-25T12:22:56;98728.75;;;17.06;53.94
9893;BME280;4985;49.092;8.542;2023-03-25T12:25:32;98747.38;;;17.06;53.94
9893;BME280;4985;49.092;8.542;2023-03-25T12:28:13;98729.56;;;17.06;53.96
9893;BME280;4985;49.092;8.542;2023-03-25T12:30:53;98733.84;;;17.07;53.93
9893;BME280;4985;49.092;8.542;2023-03-25T12:33:35;98717.91;;;17.07;53.90
9893;BME280;4985;49.092;8.542;2023-03-25T12:36:17;98730.66;;;16.99;53.86
9893;BME280;4985;49.092;8.542;2023-03-25T12:38:53;98732.59;;;17.10;53.84
9893;BME280;4985;49.092;8.542;2023-03-25T12:41:28;98715.03;;;17.09;53.82
9893;BME280;4985;49.092;8.542;2023-03-25T12:44:01;98729.94;;;17.10;53.81
9893;BME280;4985;49.092;8.542;2023-03-25T12:46:46;98707.84;;;17.09;53.80
9893;BME280;4985;49.092;8.542;2023-03-25T12:49:27;98715.84;;;17.09;53.82
9893;BME280;4985;49.092;8.542;2023-03-25T12:52:03;98723.62;;;17.11;53.82
9893;BME280;4985;49.092;8.542;2023-03-25T12:54:46;98712.97;;;17.11;53.78
9893;BME280;4985;49.092;8.542;2023-03-25T12:57:31;98712.97;;;17.11;53.78
9893;BME280;4985;49.092;8.542;2023-03-25T13:00:18;98715.63;;;17.11;53.77
9893;BME280;4985;49.092;8.542;2023-03-25T13:03:03;98712.97;;;17.11;53.78
9893;BME280;4985;49.092;8.542;2023-03-25T13:05:36;98708.47;;;17.11;53.79
9893;BME280;4985;49.092;8.542;2023-03-25T13:08:09;98716.22;;;17.13;53.80
9893;BME280;4985;49.092;8.542;2023-03-25T13:10:42;98698.44;;;17.13;53.74
9893;BME280;4985;49.092;8.542;2023-03-25T13:13:12;98698.44;;;17.13;53.72
9893;BME280;4985;49.092;8.542;2023-03-25T13:15:43;98696.81;;;17.12;53.74
9893;BME280;4985;49.092;8.542;2023-03-25T13:18:14;98705.59;;;17.13;53.75
9893;BME280;4985;49.092;8.542;2023-03-25T13:20:45;98705.37;;;17.14;53.75
9893;BME280;4985;49.092;8.542;2023-03-25T13:23:18;98701.09;;;17.13;53.73
9893;BME280;4985;49.092;8.542;2023-03-25T13:25:49;98702.72;;;17.14;53.71
9893;BME280;4985;49.092;8.542;2023-03-25T13:28:21;98702.72;;;17.14;53.73
9893;BME280;4985;49.092;8.542;2023-03-25T13:30:50;98700.88;;;17.15;53.72
9893;BME280;4985;49.092;8.542;2023-03-25T13:33:23;98689.19;;;17.16;53.70
9893;BME280;4985;49.092;8.542;2023-03-25T13:35:56;98699.81;;;17.16;53.69
9893;BME280;4985;49.092;8.542;2023-03-25T13:38:28;98704.09;;;17.17;53.69
9893;BME280;4985;49.092;8.542;2023-03-25T13:41:06;98703.28;;;17.16;53.68
9893;BME280;4985;49.092;8.542;2023-03-25T13:43:38;98696.13;;;17.17;53.69